Time;durP1;ratioP1;P1;durP2;ratioP2;P2;SDS_P1;SDS_P2;PMS_P1;PMS_P2;Temp;Humidity;BMP_temperature;BMP_pressure;BME280_temperature;BME280_humidity;BME280_pressure;Samples;Min_cycle;Max_cycle;Signal;HPM_P1;HPM_P2
2022/01/08 00:01:32;;;;;;;6.05;3.22;;;;;;;;;;4998045;28;20092;-78
2022/01/08 00:03:59;;;;;;;6.07;2.97;;;;;;;;;;4997610;28;20074;-78
2022/01/08 00:06:26;;;;;;;5.75;3.00;;;;;;;;;;4996797;28;20051;-79
2022/01/08 00:08:53;;;;;;;7.10;3.70;;;;;;;;;;4997227;28;20042;-78
2022/01/08 00:11:24;;;;;;;5.82;3.13;;;;;;;;;;4998152;28;20078;-78
2022/01/08 00:13:52;;;;;;;4.95;2.90;;;;;;;;;;4998417;28;20057;-78
2022/01/08 00:16:19;;;;;;;4.65;2.90;;;;;;;;;;4995283;28;20567;-78
2022/01/08 00:18:46;;;;;;;5.00;2.70;;;;;;;;;;4994971;28;20088;-78
2022/01/08 00:21:13;;;;;;;5.10;2.97;;;;;;;;;;4994216;28;20129;-78
2022/01/08 00:23:40;;;;;;;5.72;2.78;;;;;;;;;;4994296;28;20121;-77
2022/01/08 00:26:06;;;;;;;5.68;2.60;;;;;;;;;;4992815;28;20125;-77
2022/01/08 00:28:33;;;;;;;5.57;2.90;;;;;;;;;;4992200;28;20082;-77
2022/01/08 00:31:03;;;;;;;4.85;2.60;;;;;;;;;;4992360;28;20054;-77
2022/01/08 00:33:30;;;;;;;5.25;2.55;;;;;;;;;;4995656;28;20042;-77
2022/01/08 00:35:56;;;;;;;4.20;2.47;;;;;;;;;;4996169;28;20050;-77
2022/01/08 00:38:23;;;;;;;4.00;2.28;;;;;;;;;;4996076;28;20050;-77
2022/01/08 00:40:50;;;;;;;5.05;3.00;;;;;;;;;;4996373;28;20078;-77
2022/01/08 00:43:17;;;;;;;5.75;2.83;;;;;;;;;;4996203;28;20077;-77
2022/01/08 00:45:43;;;;;;;4.30;2.63;;;;;;;;;;4996389;28;20046;-76
2022/01/08 00:48:11;;;;;;;4.90;2.58;;;;;;;;;;4995859;28;20081;-77
2022/01/08 00:50:38;;;;;;;5.47;2.92;;;;;;;;;;4996834;28;20084;-77
2022/01/08 00:53:05;;;;;;;6.25;3.03;;;;;;;;;;4997339;28;20046;-77
2022/01/08 00:55:31;;;;;;;5.10;2.95;;;;;;;;;;4996828;28;20050;-77
2022/01/08 00:57:59;;;;;;;5.75;3.20;;;;;;;;;;4995897;28;20135;-77
2022/01/08 01:00:25;;;;;;;5.15;2.67;;;;;;;;;;4996004;28;20054;-77
2022/01/08 01:02:53;;;;;;;4.95;3.25;;;;;;;;;;4995955;28;20077;-77
2022/01/08 01:05:22;;;;;;;4.97;2.83;;;;;;;;;;4996582;28;20046;-77
2022/01/08 01:07:49;;;;;;;5.50;3.00;;;;;;;;;;4996491;28;20564;-77
2022/01/08 01:10:17;;;;;;;5.40;2.88;;;;;;;;;;4995988;28;20399;-76
2022/01/08 01:12:44;;;;;;;5.95;3.42;;;;;;;;;;4995579;28;20457;-77
2022/01/08 01:15:14;;;;;;;5.82;3.33;;;;;;;;;;4995675;28;20081;-77
2022/01/08 01:17:41;;;;;;;5.00;3.30;;;;;;;;;;4995229;28;20101;-77
2022/01/08 01:20:10;;;;;;;5.63;3.47;;;;;;;;;;4995348;28;20082;-77
2022/01/08 01:22:47;;;;;;;5.90;2.97;;;;;;;;;;4995606;28;20082;-77
2022/01/08 01:25:19;;;;;;;4.65;3.10;;;;;;;;;;4995177;28;20133;-77
2022/01/08 01:30:55;;;;;;;6.32;3.25;;;;;;;;;;4994715;28;20124;-77
2022/01/08 01:41:49;;;;;;;4.70;2.85;;;;;;;;;;4995304;28;20061;-77
2022/01/08 01:47:03;;;;;;;6.07;3.22;;;;;;;;;;4995012;28;20129;-77
2022/01/08 01:49:31;;;;;;;6.43;3.25;;;;;;;;;;4995535;28;20054;-77
2022/01/08 01:51:59;;;;;;;6.07;3.00;;;;;;;;;;4995241;28;20129;-77
2022/01/08 01:54:28;;;;;;;5.97;3.10;;;;;;;;;;4995457;28;20046;-77
2022/01/08 01:56:57;;;;;;;5.50;3.00;;;;;;;;;;4995324;28;20073;-77
2022/01/08 01:59:23;;;;;;;5.57;3.10;;;;;;;;;;5010935;23;20496;-80
2022/01/08 02:01:50;;;;;;;5.38;3.13;;;;;;;;;;5016569;28;20058;-79
2022/01/08 02:04:17;;;;;;;4.72;2.85;;;;;;;;;;5016041;28;20077;-81
2022/01/08 02:06:44;;;;;;;5.30;3.10;;;;;;;;;;5016213;28;20046;-79
2022/01/08 02:09:11;;;;;;;6.40;3.47;;;;;;;;;;5011059;28;20046;-79
2022/01/08 02:11:57;;;;;;;6.65;3.53;;;;;;;;;;4996479;28;20061;-81
2022/01/08 02:14:24;;;;;;;6.35;3.30;;;;;;;;;;4996429;28;20051;-81
2022/01/08 02:16:50;;;;;;;6.30;2.80;;;;;;;;;;4997324;28;20201;-80
2022/01/08 02:19:17;;;;;;;4.30;2.42;;;;;;;;;;4997668;28;20090;-81
2022/01/08 02:21:48;;;;;;;5.63;2.80;;;;;;;;;;4998692;28;20092;-81
2022/01/08 02:24:15;;;;;;;5.78;3.03;;;;;;;;;;5002421;28;20108;-81
2022/01/08 02:26:42;;;;;;;5.30;2.63;;;;;;;;;;5003772;28;20057;-80
2022/01/08 02:29:11;;;;;;;5.75;3.10;;;;;;;;;;5003069;28;20061;-78
2022/01/08 02:31:38;;;;;;;5.32;2.80;;;;;;;;;;5002783;28;20053;-79
2022/01/08 02:34:06;;;;;;;5.85;3.47;;;;;;;;;;5004178;28;20074;-79
2022/01/08 02:36:32;;;;;;;5.45;2.97;;;;;;;;;;5003978;28;20051;-79
2022/01/08 02:39:01;;;;;;;5.55;3.35;;;;;;;;;;5004219;28;20046;-79
2022/01/08 02:41:28;;;;;;;6.30;3.05;;;;;;;;;;5004300;28;20108;-80
2022/01/08 02:43:55;;;;;;;7.43;3.13;;;;;;;;;;5003925;28;20046;-78
2022/01/08 02:46:22;;;;;;;4.63;2.85;;;;;;;;;;5003988;28;20046;-79
2022/01/08 02:48:49;;;;;;;5.78;3.20;;;;;;;;;;5005336;28;20417;-79
2022/01/08 02:51:15;;;;;;;4.82;2.80;;;;;;;;;;5004922;28;20054;-79
2022/01/08 02:53:42;;;;;;;5.70;2.88;;;;;;;;;;5005080;28;20050;-80
2022/01/08 02:56:10;;;;;;;4.25;2.70;;;;;;;;;;5004627;28;20046;-80
2022/01/08 02:58:37;;;;;;;4.70;2.78;;;;;;;;;;5003957;28;20069;-78
2022/01/08 03:01:04;;;;;;;4.28;2.25;;;;;;;;;;5004021;28;20050;-79
2022/01/08 03:03:30;;;;;;;5.43;2.72;;;;;;;;;;5003931;28;20053;-79
2022/01/08 03:05:57;;;;;;;5.72;2.90;;;;;;;;;;5004712;28;20046;-79
2022/01/08 03:08:24;;;;;;;4.53;2.50;;;;;;;;;;5004420;28;20497;-80
2022/01/08 03:10:51;;;;;;;4.72;2.60;;;;;;;;;;5004528;28;20046;-80
2022/01/08 03:13:19;;;;;;;5.45;2.85;;;;;;;;;;5003499;28;20101;-79
2022/01/08 03:15:45;;;;;;;4.80;2.88;;;;;;;;;;5003849;28;20046;-79
2022/01/08 03:18:12;;;;;;;4.03;2.22;;;;;;;;;;5003487;28;20042;-79
2022/01/08 03:20:46;;;;;;;4.65;2.75;;;;;;;;;;4998550;28;20046;-79
2022/01/08 03:23:16;;;;;;;4.68;2.70;;;;;;;;;;4999641;28;20050;-78
2022/01/08 03:25:43;;;;;;;4.82;2.65;;;;;;;;;;5001192;28;20043;-78
2022/01/08 03:28:10;;;;;;;4.75;2.90;;;;;;;;;;5000286;28;20042;-78
2022/01/08 03:30:39;;;;;;;4.85;2.47;;;;;;;;;;4997826;28;20050;-79
2022/01/08 03:33:06;;;;;;;4.55;2.70;;;;;;;;;;4999221;28;20050;-79
2022/01/08 03:35:33;;;;;;;4.10;2.60;;;;;;;;;;4999389;28;20046;-80
2022/01/08 03:38:00;;;;;;;4.40;2.60;;;;;;;;;;4998497;28;20110;-80
2022/01/08 03:40:27;;;;;;;5.10;2.67;;;;;;;;;;4996769;28;20046;-81
2022/01/08 03:42:53;;;;;;;4.55;2.30;;;;;;;;;;4996203;28;20150;-80
2022/01/08 03:45:20;;;;;;;5.38;2.78;;;;;;;;;;4999867;28;20061;-80
2022/01/08 03:50:35;;;;;;;5.00;2.90;;;;;;;;;;4994388;28;20058;-80
2022/01/08 03:53:02;;;;;;;4.97;2.92;;;;;;;;;;4998257;28;20046;-82
2022/01/08 03:55:28;;;;;;;5.72;2.67;;;;;;;;;;4997700;28;20043;-79
2022/01/08 03:57:55;;;;;;;5.00;2.97;;;;;;;;;;4996408;28;20089;-82
2022/01/08 04:00:22;;;;;;;5.65;2.95;;;;;;;;;;5000466;28;20077;-79
2022/01/08 04:02:51;;;;;;;4.85;3.00;;;;;;;;;;5000203;28;20050;-79
2022/01/08 04:05:18;;;;;;;6.15;2.95;;;;;;;;;;5000609;28;20065;-81
2022/01/08 04:07:44;;;;;;;5.85;2.95;;;;;;;;;;4997560;28;20105;-80
2022/01/08 04:10:11;;;;;;;5.78;2.85;;;;;;;;;;5000052;28;20120;-80
2022/01/08 04:12:42;;;;;;;5.55;3.05;;;;;;;;;;5000153;28;20088;-81
2022/01/08 04:15:31;;;;;;;6.05;3.00;;;;;;;;;;5006120;28;20057;-82
2022/01/08 04:17:57;;;;;;;5.78;3.00;;;;;;;;;;5008896;28;20085;-80
2022/01/08 04:20:24;;;;;;;4.57;2.63;;;;;;;;;;5009767;28;20050;-81
2022/01/08 04:22:52;;;;;;;5.05;2.33;;;;;;;;;;5004856;28;20046;-81
2022/01/08 04:25:20;;;;;;;4.68;2.35;;;;;;;;;;5004331;28;20089;-81
2022/01/08 04:27:48;;;;;;;4.05;2.25;;;;;;;;;;5003837;28;20104;-81
2022/01/08 04:30:15;;;;;;;4.63;2.20;;;;;;;;;;5001168;28;20081;-80
2022/01/08 04:32:42;;;;;;;3.42;2.20;;;;;;;;;;5001083;28;20082;-82
2022/01/08 04:35:11;;;;;;;4.75;2.10;;;;;;;;;;5001249;28;20560;-82
2022/01/08 04:37:37;;;;;;;3.13;1.75;;;;;;;;;;5000365;28;20417;-80
2022/01/08 04:40:05;;;;;;;3.40;1.77;;;;;;;;;;5000469;28;20042;-81
2022/01/08 04:42:32;;;;;;;3.58;1.60;;;;;;;;;;5000570;28;20170;-80
2022/01/08 04:44:59;;;;;;;4.15;1.67;;;;;;;;;;5000967;28;20097;-80
2022/01/08 04:47:25;;;;;;;2.92;1.42;;;;;;;;;;5000445;28;20046;-80
2022/01/08 04:49:52;;;;;;;3.10;1.40;;;;;;;;;;5000271;28;20082;-81
2022/01/08 04:52:20;;;;;;;2.28;1.40;;;;;;;;;;5000908;28;20050;-80
2022/01/08 04:54:47;;;;;;;2.67;1.40;;;;;;;;;;5000724;28;20081;-81
2022/01/08 04:57:13;;;;;;;3.25;1.30;;;;;;;;;;4999913;28;20043;-80
2022/01/08 04:59:40;;;;;;;3.08;1.40;;;;;;;;;;4999931;28;20089;-80
2022/01/08 05:02:07;;;;;;;3.22;1.42;;;;;;;;;;5000089;28;20086;-80
2022/01/08 05:04:34;;;;;;;2.88;1.40;;;;;;;;;;5003081;28;20090;-79
2022/01/08 05:07:00;;;;;;;3.17;1.42;;;;;;;;;;5001738;28;20054;-82
2022/01/08 05:09:29;;;;;;;3.60;1.60;;;;;;;;;;5001303;28;20116;-82
2022/01/08 05:11:55;;;;;;;4.82;1.70;;;;;;;;;;5000759;28;20054;-81
2022/01/08 05:14:22;;;;;;;4.93;1.48;;;;;;;;;;5001162;28;20050;-81
2022/01/08 05:16:56;;;;;;;2.65;1.40;;;;;;;;;;5002378;28;20050;-79
2022/01/08 05:19:32;;;;;;;3.33;1.50;;;;;;;;;;5000802;28;20054;-82
2022/01/08 05:21:58;;;;;;;2.67;1.30;;;;;;;;;;5003726;28;20101;-80
2022/01/08 05:24:25;;;;;;;3.63;1.42;;;;;;;;;;5000047;28;20493;-80
2022/01/08 05:26:53;;;;;;;2.53;1.30;;;;;;;;;;5000662;28;20137;-81
2022/01/08 05:29:20;;;;;;;2.28;1.27;;;;;;;;;;5000825;28;20101;-81
2022/01/08 05:31:48;;;;;;;2.67;1.40;;;;;;;;;;5001098;28;20433;-79
2022/01/08 05:34:15;;;;;;;2.90;1.33;;;;;;;;;;5000092;28;20062;-82
2022/01/08 05:36:41;;;;;;;2.78;1.30;;;;;;;;;;4999250;28;20074;-83
2022/01/08 05:39:08;;;;;;;3.60;1.40;;;;;;;;;;5000033;28;20043;-82
2022/01/08 05:41:35;;;;;;;4.22;1.80;;;;;;;;;;5000555;28;20047;-82
2022/01/08 05:44:03;;;;;;;2.67;1.65;;;;;;;;;;5001046;28;20050;-80
2022/01/08 05:46:30;;;;;;;4.30;1.83;;;;;;;;;;5000575;28;20054;-82
2022/01/08 05:49:00;;;;;;;3.33;1.55;;;;;;;;;;4996091;28;20112;-83
2022/01/08 05:51:27;;;;;;;2.90;1.30;;;;;;;;;;4996578;28;20042;-81
2022/01/08 05:53:54;;;;;;;2.70;1.30;;;;;;;;;;4996735;28;20070;-81
2022/01/08 05:56:21;;;;;;;4.78;1.40;;;;;;;;;;4996574;28;20054;-80
2022/01/08 05:58:48;;;;;;;3.72;1.33;;;;;;;;;;4996398;28;20070;-82
2022/01/08 06:01:16;;;;;;;3.00;1.30;;;;;;;;;;4996458;28;20116;-80
2022/01/08 06:03:42;;;;;;;2.67;1.30;;;;;;;;;;4996465;28;20090;-79
2022/01/08 06:06:12;;;;;;;3.00;1.42;;;;;;;;;;4996646;28;20077;-79
2022/01/08 06:08:38;;;;;;;2.72;1.20;;;;;;;;;;4996416;28;20086;-79
2022/01/08 06:11:05;;;;;;;3.83;1.27;;;;;;;;;;4996395;28;20085;-81
2022/01/08 06:13:32;;;;;;;3.13;1.17;;;;;;;;;;4996571;28;20088;-80
2022/01/08 06:15:58;;;;;;;2.72;1.30;;;;;;;;;;4998345;28;20120;-80
2022/01/08 06:18:26;;;;;;;1.55;0.80;;;;;;;;;;4998288;28;20046;-81
2022/01/08 06:20:55;;;;;;;2.17;0.80;;;;;;;;;;4998790;28;20081;-81
2022/01/08 06:23:22;;;;;;;1.83;1.00;;;;;;;;;;4997693;28;20061;-80
2022/01/08 06:25:49;;;;;;;1.83;0.80;;;;;;;;;;4997852;28;20095;-81
2022/01/08 06:28:15;;;;;;;3.00;1.27;;;;;;;;;;4996683;28;20101;-80
2022/01/08 06:30:42;;;;;;;3.20;1.00;;;;;;;;;;4995747;28;20480;-80
2022/01/08 06:33:09;;;;;;;1.88;1.08;;;;;;;;;;4997175;28;20218;-80
2022/01/08 06:35:37;;;;;;;3.45;1.20;;;;;;;;;;5000518;28;20046;-80
2022/01/08 06:38:04;;;;;;;2.17;1.13;;;;;;;;;;4999798;28;20050;-81
2022/01/08 06:40:31;;;;;;;2.70;1.15;;;;;;;;;;5008031;28;20050;-78
2022/01/08 06:42:57;;;;;;;4.43;1.55;;;;;;;;;;5009362;28;20105;-80
2022/01/08 06:45:24;;;;;;;3.25;1.17;;;;;;;;;;4996808;28;20461;-80
2022/01/08 06:47:51;;;;;;;2.50;1.10;;;;;;;;;;4995374;28;20161;-79
2022/01/08 06:50:18;;;;;;;2.08;1.00;;;;;;;;;;4995861;28;20089;-80
2022/01/08 06:52:46;;;;;;;3.58;1.88;;;;;;;;;;4995616;28;20089;-81
2022/01/08 06:55:12;;;;;;;2.22;1.08;;;;;;;;;;4995174;28;20084;-79
2022/01/08 06:57:39;;;;;;;1.60;0.73;;;;;;;;;;4994817;28;20091;-78
2022/01/08 07:00:07;;;;;;;1.95;0.88;;;;;;;;;;4995289;28;20117;-81
2022/01/08 07:02:33;;;;;;;1.13;0.60;;;;;;;;;;4994762;28;20081;-79
2022/01/08 07:05:00;;;;;;;1.98;0.80;;;;;;;;;;4994957;28;20077;-80
2022/01/08 07:07:27;;;;;;;1.60;0.75;;;;;;;;;;4994570;28;20042;-79
2022/01/08 07:09:55;;;;;;;1.65;0.82;;;;;;;;;;4995193;28;20089;-80
2022/01/08 07:12:22;;;;;;;1.40;0.70;;;;;;;;;;4994839;28;20042;-80
2022/01/08 07:14:49;;;;;;;0.98;0.68;;;;;;;;;;4994824;28;20042;-81
2022/01/08 07:17:15;;;;;;;1.83;0.65;;;;;;;;;;4994561;28;20070;-80
2022/01/08 07:19:42;;;;;;;0.88;0.70;;;;;;;;;;4995002;28;20484;-80
2022/01/08 07:22:09;;;;;;;2.75;1.10;;;;;;;;;;4996230;28;20082;-80
2022/01/08 07:24:36;;;;;;;1.27;0.60;;;;;;;;;;4995463;28;20055;-79
2022/01/08 07:27:04;;;;;;;1.65;0.68;;;;;;;;;;4995404;28;20089;-81
2022/01/08 07:29:31;;;;;;;1.30;0.60;;;;;;;;;;4995722;28;20105;-81
2022/01/08 07:31:57;;;;;;;0.65;0.60;;;;;;;;;;5010829;28;20045;-80
2022/01/08 07:34:24;;;;;;;3.28;0.90;;;;;;;;;;5016505;28;20503;-81
2022/01/08 07:36:51;;;;;;;1.27;0.65;;;;;;;;;;5026895;28;20121;-79
2022/01/08 07:39:18;;;;;;;1.80;0.68;;;;;;;;;;5027463;28;20050;-80
2022/01/08 07:41:44;;;;;;;2.17;0.85;;;;;;;;;;5018696;28;20057;-80
2022/01/08 07:44:16;;;;;;;1.02;0.60;;;;;;;;;;5018641;28;20050;-80
2022/01/08 07:46:43;;;;;;;1.95;0.70;;;;;;;;;;5022482;28;20060;-81
2022/01/08 07:49:10;;;;;;;1.38;0.80;;;;;;;;;;5026418;28;20052;-80
2022/01/08 07:51:37;;;;;;;1.30;0.70;;;;;;;;;;5005876;28;20576;-79
2022/01/08 07:54:03;;;;;;;1.67;0.80;;;;;;;;;;4997062;28;20501;-80
2022/01/08 07:56:30;;;;;;;1.55;0.73;;;;;;;;;;4995588;28;20494;-80
2022/01/08 07:58:57;;;;;;;2.50;0.80;;;;;;;;;;4995681;28;20043;-81
2022/01/08 08:01:28;;;;;;;1.50;0.90;;;;;;;;;;5035619;23;20048;-78
2022/01/08 08:03:54;;;;;;;;;;;;;;;;;;5037659;28;20049;-77
2022/01/08 08:06:21;;;;;;;2.08;0.85;;;;;;;;;;5036576;28;19921;-77
2022/01/08 08:08:48;;;;;;;1.40;0.73;;;;;;;;;;5039888;28;20060;-78
2022/01/08 08:11:15;;;;;;;1.13;0.70;;;;;;;;;;5024917;28;20424;-77
2022/01/08 08:13:42;;;;;;;2.65;1.10;;;;;;;;;;5022210;28;20050;-79
2022/01/08 08:16:08;;;;;;;2.05;0.90;;;;;;;;;;5017698;28;20100;-78
2022/01/08 08:18:37;;;;;;;1.95;1.05;;;;;;;;;;5019985;28;20049;-78
2022/01/08 08:21:04;;;;;;;2.42;1.00;;;;;;;;;;5021227;28;20052;-77
2022/01/08 08:23:32;;;;;;;1.98;0.85;;;;;;;;;;5014998;28;20073;-78
2022/01/08 08:25:59;;;;;;;2.40;0.90;;;;;;;;;;5021847;28;20053;-77
2022/01/08 08:28:27;;;;;;;2.08;0.80;;;;;;;;;;5020683;28;20053;-77
2022/01/08 08:30:54;;;;;;;2.28;0.80;;;;;;;;;;5021750;28;20527;-78
2022/01/08 08:33:20;;;;;;;1.25;0.80;;;;;;;;;;5014025;28;20053;-77
2022/01/08 08:35:52;;;;;;;1.55;0.90;;;;;;;;;;5016487;28;20053;-78
2022/01/08 08:38:19;;;;;;;1.90;0.90;;;;;;;;;;5012576;28;20509;-78
2022/01/08 08:40:45;;;;;;;2.65;0.93;;;;;;;;;;5014572;28;20092;-79
2022/01/08 08:43:12;;;;;;;1.70;1.10;;;;;;;;;;5015981;28;20081;-78
2022/01/08 08:45:40;;;;;;;1.88;0.90;;;;;;;;;;5016259;28;20058;-78
2022/01/08 08:48:07;;;;;;;1.83;0.73;;;;;;;;;;5017480;28;20048;-78
2022/01/08 08:50:34;;;;;;;2.67;0.90;;;;;;;;;;5022199;28;20512;-78
2022/01/08 08:53:02;;;;;;;2.78;0.88;;;;;;;;;;5025749;28;20061;-78
2022/01/08 08:55:28;;;;;;;3.40;0.98;;;;;;;;;;5029367;28;20104;-78
2022/01/08 08:57:55;;;;;;;2.47;0.85;;;;;;;;;;5028226;28;20057;-78
2022/01/08 09:00:23;;;;;;;1.48;0.80;;;;;;;;;;5037598;28;20046;-79
2022/01/08 09:02:50;;;;;;;1.52;0.80;;;;;;;;;;5037790;28;20053;-79
2022/01/08 09:05:17;;;;;;;4.15;1.27;;;;;;;;;;5021944;28;20493;-77
2022/01/08 09:07:44;;;;;;;2.65;1.10;;;;;;;;;;5026579;28;20053;-80
2022/01/08 09:10:13;;;;;;;1.77;0.93;;;;;;;;;;5025423;28;20054;-81
2022/01/08 09:12:41;;;;;;;1.02;0.80;;;;;;;;;;5024892;28;20050;-79
2022/01/08 09:15:10;;;;;;;3.05;1.00;;;;;;;;;;5024403;28;20050;-78
2022/01/08 09:17:39;;;;;;;0.90;0.73;;;;;;;;;;5023240;28;20479;-83
2022/01/08 09:20:08;;;;;;;1.60;0.90;;;;;;;;;;5026640;28;20069;-79
2022/01/08 09:22:35;;;;;;;2.75;1.02;;;;;;;;;;5047356;28;20050;-78
2022/01/08 09:25:02;;;;;;;1.83;1.00;;;;;;;;;;5040285;28;20080;-78
2022/01/08 09:27:30;;;;;;;1.77;1.00;;;;;;;;;;5042322;28;20496;-79
2022/01/08 09:29:57;;;;;;;1.20;0.90;;;;;;;;;;5036981;28;20045;-77
2022/01/08 09:32:27;;;;;;;1.63;0.80;;;;;;;;;;5027333;28;20485;-77
2022/01/08 09:34:55;;;;;;;2.85;1.27;;;;;;;;;;5016525;28;20092;-77
2022/01/08 09:37:21;;;;;;;2.22;1.00;;;;;;;;;;5026800;28;20065;-78
2022/01/08 09:39:48;;;;;;;2.17;1.20;;;;;;;;;;5033536;28;20042;-78
2022/01/08 09:42:15;;;;;;;2.10;0.90;;;;;;;;;;5025570;28;20049;-78
2022/01/08 09:44:44;;;;;;;2.63;1.20;;;;;;;;;;5028849;28;20109;-78
2022/01/08 09:47:12;;;;;;;2.83;1.10;;;;;;;;;;5028515;28;20050;-78
2022/01/08 09:49:39;;;;;;;3.20;1.48;;;;;;;;;;5029146;28;20045;-79
2022/01/08 09:52:10;;;;;;;2.47;1.20;;;;;;;;;;5024675;28;20050;-78
2022/01/08 09:54:40;;;;;;;1.20;0.70;;;;;;;;;;5032711;28;20046;-79
2022/01/08 09:57:08;;;;;;;2.83;1.20;;;;;;;;;;5030903;28;20038;-79
2022/01/08 09:59:35;;;;;;;1.35;0.80;;;;;;;;;;5032586;28;20272;-79
2022/01/08 10:02:04;;;;;;;2.83;1.10;;;;;;;;;;5031383;28;20050;-78
2022/01/08 10:04:34;;;;;;;1.58;0.90;;;;;;;;;;5024625;28;20049;-78
2022/01/08 10:07:18;;;;;;;1.42;0.90;;;;;;;;;;5021167;28;20116;-79
2022/01/08 10:10:03;;;;;;;1.45;0.90;;;;;;;;;;5021214;28;20104;-80
2022/01/08 10:12:39;;;;;;;2.40;1.30;;;;;;;;;;5021921;28;20077;-79
2022/01/08 10:17:53;;;;;;;2.95;1.20;;;;;;;;;;5019581;28;20060;-79
2022/01/08 10:20:36;;;;;;;2.38;1.20;;;;;;;;;;5019639;28;20050;-79
2022/01/08 10:23:15;;;;;;;2.50;1.17;;;;;;;;;;5017395;28;20202;-79
2022/01/08 10:25:43;;;;;;;1.90;1.05;;;;;;;;;;5020226;28;20496;-80
2022/01/08 10:28:11;;;;;;;2.65;1.10;;;;;;;;;;5018767;28;20396;-79
2022/01/08 10:30:37;;;;;;;2.60;1.00;;;;;;;;;;5020285;28;20049;-79
2022/01/08 10:33:06;;;;;;;1.73;1.10;;;;;;;;;;5021777;28;20113;-79
2022/01/08 10:35:52;;;;;;;2.15;1.10;;;;;;;;;;5025378;28;20054;-80
2022/01/08 10:38:19;;;;;;;3.13;1.30;;;;;;;;;;5029650;28;20049;-80
2022/01/08 10:40:46;;;;;;;2.75;1.40;;;;;;;;;;5023535;28;20058;-79
2022/01/08 10:43:24;;;;;;;2.25;1.40;;;;;;;;;;5021021;28;20046;-79
2022/01/08 10:45:52;;;;;;;2.35;1.67;;;;;;;;;;5020267;28;20054;-80
2022/01/08 10:48:28;;;;;;;2.67;1.50;;;;;;;;;;5019338;28;20432;-78
2022/01/08 10:51:09;;;;;;;2.08;1.20;;;;;;;;;;5020197;28;20080;-81
2022/01/08 10:53:55;;;;;;;2.92;1.55;;;;;;;;;;5019764;28;20053;-79
2022/01/08 10:56:25;;;;;;;3.08;1.58;;;;;;;;;;5021011;28;20053;-80
2022/01/08 10:58:55;;;;;;;3.55;1.58;;;;;;;;;;5025032;28;20046;-80
2022/01/08 11:01:43;;;;;;;3.13;1.42;;;;;;;;;;5028557;28;20104;-81
2022/01/08 11:04:13;;;;;;;3.40;1.52;;;;;;;;;;5021603;28;20056;-79
2022/01/08 11:06:59;;;;;;;3.25;1.50;;;;;;;;;;5020088;28;20108;-79
2022/01/08 11:09:27;;;;;;;3.00;1.50;;;;;;;;;;5019987;28;20046;-79
2022/01/08 11:11:56;;;;;;;2.50;1.58;;;;;;;;;;5018906;28;20049;-77
2022/01/08 11:17:15;;;;;;;3.38;1.50;;;;;;;;;;5019240;28;20108;-79
2022/01/08 11:19:46;;;;;;;3.05;1.50;;;;;;;;;;5018881;28;20073;-79
2022/01/08 11:22:15;;;;;;;4.00;1.90;;;;;;;;;;5020818;28;20046;-78
2022/01/08 11:24:49;;;;;;;3.70;1.88;;;;;;;;;;5019613;28;20054;-78
2022/01/08 11:27:21;;;;;;;3.53;1.70;;;;;;;;;;5019872;28;20195;-79
2022/01/08 11:30:04;;;;;;;3.67;1.80;;;;;;;;;;5020493;28;20072;-79
2022/01/08 11:32:31;;;;;;;6.20;2.35;;;;;;;;;;5023395;28;20493;-80
2022/01/08 11:35:01;;;;;;;3.90;1.90;;;;;;;;;;5020180;28;20074;-79
2022/01/08 11:37:28;;;;;;;4.55;2.10;;;;;;;;;;5019489;28;20572;-80
2022/01/08 11:39:56;;;;;;;4.60;2.53;;;;;;;;;;5020023;28;20057;-81
2022/01/08 11:42:23;;;;;;;3.70;1.92;;;;;;;;;;5019074;28;20052;-79
2022/01/08 11:44:52;;;;;;;4.63;2.33;;;;;;;;;;5020033;28;20076;-78
2022/01/08 11:47:23;;;;;;;5.38;2.40;;;;;;;;;;5021342;28;20053;-79
2022/01/08 11:49:50;;;;;;;6.65;2.53;;;;;;;;;;5021497;28;20080;-79
2022/01/08 11:52:21;;;;;;;4.82;2.53;;;;;;;;;;5022470;28;20049;-79
2022/01/08 11:54:49;;;;;;;6.45;2.85;;;;;;;;;;5022296;28;20054;-79
2022/01/08 11:57:19;;;;;;;4.60;2.53;;;;;;;;;;5021581;28;20045;-79
2022/01/08 11:59:46;;;;;;;5.22;2.88;;;;;;;;;;5023445;28;20050;-81
2022/01/08 12:02:14;;;;;;;5.13;2.60;;;;;;;;;;5027371;28;20050;-77
2022/01/08 12:04:44;;;;;;;4.82;2.85;;;;;;;;;;5026862;28;20050;-80
2022/01/08 12:07:35;;;;;;;4.37;2.53;;;;;;;;;;5028490;28;20046;-78
2022/01/08 12:10:18;;;;;;;4.45;2.53;;;;;;;;;;5028908;28;20238;-79
2022/01/08 12:12:54;;;;;;;5.10;2.50;;;;;;;;;;5029125;28;20084;-77
2022/01/08 12:15:48;;;;;;;4.70;2.42;;;;;;;;;;5022062;28;20046;-79
2022/01/08 12:18:17;;;;;;;6.05;2.78;;;;;;;;;;5020936;28;20069;-79
2022/01/08 12:20:46;;;;;;;4.07;2.20;;;;;;;;;;5022099;28;20053;-79
2022/01/08 12:23:33;;;;;;;4.20;2.05;;;;;;;;;;5021653;28;20049;-78
2022/01/08 12:26:03;;;;;;;4.85;2.35;;;;;;;;;;5023320;28;20104;-80
2022/01/08 12:28:59;;;;;;;5.30;2.67;;;;;;;;;;5021895;28;20046;-79
2022/01/08 12:31:29;;;;;;;5.35;2.40;;;;;;;;;;5025759;28;20046;-78
2022/01/08 12:34:49;;;;;;;5.32;2.33;;;;;;;;;;5025475;28;20057;-78
2022/01/08 12:37:18;;;;;;;8.27;2.40;;;;;;;;;;5024334;28;20050;-79
2022/01/08 12:39:55;;;;;;;3.60;2.08;;;;;;;;;;5025062;28;20046;-79
2022/01/08 12:42:49;;;;;;;4.00;2.00;;;;;;;;;;5027305;28;20077;-80
2022/01/08 12:45:21;;;;;;;3.63;2.17;;;;;;;;;;5027529;28;20049;-79
2022/01/08 12:47:52;;;;;;;4.63;2.00;;;;;;;;;;5026976;28;20042;-79
2022/01/08 12:50:28;;;;;;;4.45;2.33;;;;;;;;;;5026143;28;20064;-80
2022/01/08 12:53:13;;;;;;;5.13;2.05;;;;;;;;;;5025877;28;20104;-80
2022/01/08 12:55:44;;;;;;;2.88;1.92;;;;;;;;;;5025006;28;20390;-78
2022/01/08 12:58:15;;;;;;;6.57;2.15;;;;;;;;;;5027434;28;20046;-79
2022/01/08 13:00:55;;;;;;;7.30;2.53;;;;;;;;;;5025567;28;20072;-81
2022/01/08 13:03:24;;;;;;;5.50;2.05;;;;;;;;;;5024816;28;20053;-79
2022/01/08 13:05:52;;;;;;;6.28;2.80;;;;;;;;;;5025376;28;20057;-79
2022/01/08 13:08:24;;;;;;;3.95;2.20;;;;;;;;;;5025508;28;20050;-79
2022/01/08 13:11:00;;;;;;;5.00;1.90;;;;;;;;;;5024835;28;20068;-79
2022/01/08 13:13:27;;;;;;;4.40;2.17;;;;;;;;;;5026128;28;20053;-79
2022/01/08 13:15:55;;;;;;;4.35;1.95;;;;;;;;;;5026570;28;20050;-79
2022/01/08 13:18:23;;;;;;;3.90;1.92;;;;;;;;;;5029750;28;20049;-79
2022/01/08 13:21:02;;;;;;;2.65;1.67;;;;;;;;;;5032522;28;20054;-77
2022/01/08 13:23:30;;;;;;;4.32;1.75;;;;;;;;;;5024476;28;20291;-79
2022/01/08 13:26:00;;;;;;;3.72;1.67;;;;;;;;;;5024481;28;20045;-78
2022/01/08 13:28:27;;;;;;;5.00;1.85;;;;;;;;;;5023586;28;20053;-77
2022/01/08 13:30:55;;;;;;;4.05;1.60;;;;;;;;;;5022590;28;20042;-77
2022/01/08 13:33:26;;;;;;;3.47;1.95;;;;;;;;;;5022702;28;20054;-78
2022/01/08 13:36:03;;;;;;;3.40;1.80;;;;;;;;;;5023108;28;20049;-78
2022/01/08 13:38:32;;;;;;;4.50;1.60;;;;;;;;;;5021033;28;20045;-78
2022/01/08 13:41:09;;;;;;;5.00;2.50;;;;;;;;;;5020955;28;20460;-78
2022/01/08 13:43:53;;;;;;;6.53;3.25;;;;;;;;;;5024475;28;20054;-79
2022/01/08 13:46:21;;;;;;;4.25;2.00;;;;;;;;;;5030285;28;20053;-78
2022/01/08 13:48:48;;;;;;;3.92;1.77;;;;;;;;;;5028905;28;20050;-79
2022/01/08 13:51:16;;;;;;;3.97;1.92;;;;;;;;;;5026934;28;20104;-79
2022/01/08 13:53:43;;;;;;;4.45;2.08;;;;;;;;;;5024560;28;20054;-79
2022/01/08 13:56:11;;;;;;;3.92;1.60;;;;;;;;;;5024578;28;20093;-78
2022/01/08 13:58:38;;;;;;;3.55;1.83;;;;;;;;;;5023884;28;20042;-79
2022/01/08 14:01:07;;;;;;;3.33;1.73;;;;;;;;;;5013312;23;20303;-80
2022/01/08 14:03:40;;;;;;;6.53;2.22;;;;;;;;;;4978013;28;20074;-79
2022/01/08 14:06:08;;;;;;;4.55;1.70;;;;;;;;;;4979044;28;20456;-79
2022/01/08 14:08:36;;;;;;;5.63;2.28;;;;;;;;;;4982229;28;20047;-80
2022/01/08 14:11:04;;;;;;;4.22;1.98;;;;;;;;;;4982340;28;20058;-80
2022/01/08 14:13:34;;;;;;;2.83;1.48;;;;;;;;;;4981987;28;20055;-80
2022/01/08 14:16:04;;;;;;;4.30;2.15;;;;;;;;;;4981703;28;20117;-80
2022/01/08 14:18:31;;;;;;;4.23;1.87;;;;;;;;;;4982469;28;20482;-79
2022/01/08 14:21:12;;;;;;;3.30;1.52;;;;;;;;;;4982324;28;20308;-79
2022/01/08 14:23:39;;;;;;;6.22;2.03;;;;;;;;;;4982667;28;20043;-80
2022/01/08 14:26:14;;;;;;;3.28;1.60;;;;;;;;;;4982600;28;20059;-80
2022/01/08 14:28:42;;;;;;;3.25;1.50;;;;;;;;;;4981933;28;20451;-79
2022/01/08 14:31:17;;;;;;;3.10;1.48;;;;;;;;;;4981619;28;20050;-78
2022/01/08 14:34:02;;;;;;;4.47;2.03;;;;;;;;;;4981499;28;20070;-81
2022/01/08 14:36:43;;;;;;;6.28;1.77;;;;;;;;;;4982062;28;20051;-81
2022/01/08 14:39:10;;;;;;;3.42;1.60;;;;;;;;;;4981303;28;20105;-81
2022/01/08 14:41:39;;;;;;;3.08;1.45;;;;;;;;;;4981291;28;20117;-81
2022/01/08 14:44:07;;;;;;;3.90;2.20;;;;;;;;;;4980804;28;20054;-81
2022/01/08 14:46:34;;;;;;;4.13;1.65;;;;;;;;;;4981102;28;20085;-80
2022/01/08 14:49:01;;;;;;;4.13;1.80;;;;;;;;;;4981898;28;20046;-80
2022/01/08 14:51:30;;;;;;;4.47;1.90;;;;;;;;;;4983277;28;20090;-80
2022/01/08 14:53:57;;;;;;;3.80;2.00;;;;;;;;;;4980746;28;20050;-81
2022/01/08 14:56:24;;;;;;;4.90;1.70;;;;;;;;;;4981667;28;20051;-79
2022/01/08 14:58:51;;;;;;;5.93;1.98;;;;;;;;;;4983887;28;20113;-82
2022/01/08 15:01:19;;;;;;;4.45;1.95;;;;;;;;;;4982701;28;20081;-81
2022/01/08 15:03:46;;;;;;;3.42;1.85;;;;;;;;;;4981432;28;20050;-81
2022/01/08 15:06:13;;;;;;;2.58;1.65;;;;;;;;;;4980788;28;20050;-82
2022/01/08 15:08:40;;;;;;;3.75;2.00;;;;;;;;;;4978193;28;20514;-81
2022/01/08 15:11:07;;;;;;;5.15;1.63;;;;;;;;;;4976531;28;20051;-80
2022/01/08 15:13:34;;;;;;;3.58;1.77;;;;;;;;;;4977783;28;20092;-80
2022/01/08 15:16:04;;;;;;;4.10;1.70;;;;;;;;;;4977303;28;20086;-79
2022/01/08 15:18:32;;;;;;;3.27;1.70;;;;;;;;;;4978369;28;20042;-79